KDAA/DAA METAR and TAF weather

Enter ICAO airport designator
Station Type Date Time Source
KDAA METAR 2020/04/05 12:56 UTC NOAA

KDAA 051256Z AUTO 17003KT 10SM CLR 10/08 A3010 RMK AO2 SLP196 T00960077 $


Station Type Date Time Source
KDAA Decoded METAR 2020/04/05 12:56 UTC NOAA

Fort Belvoir, VA, United States (KDAA) 38-43N 077-11W
Apr 05, 2020 - 08:56 AM EDT / 2020.04.05 1256 UTC
Wind: from the S (170 degrees) at 3 MPH (3 KT):0
Visibility: 10 mile(s):0
Sky conditions: clear
Temperature: 49.3 F (9.6 C)
Dew Point: 45.9 F (7.7 C)
Relative Humidity: 87%
Pressure (altimeter): 30.1 in. Hg (1019 hPa)
ob: KDAA 051256Z AUTO 17003KT 10SM CLR 10/08 A3010 RMK AO2 SLP196 T00960077
cycle: 13

Station Type Date Time Source
KDAA TAF 2020/04/04 01:28 UTC NOAA

TAF KDAA 040100Z 0401/0507 35009KT 9999 BKN060 OVC080 510105 QNH2981INS
BECMG 0406/0407 34009KT 9999 BKN030 OVC050 QNH2994INS
BECMG 0418/0419 02009KT 9999 BKN040 OVC050 QNH3000INS TX16/0420Z TN08/0411Z LAST NO
AMDS AFT 0401 NEXT 0409

Example: see airport list